Hondo — WDI7389 — position and weather

sailwx.info

Track history (hours):
 
Tides and Currents Weather Stations Pressure Air Temp Water Temp Dewpoint Dewpoint Depression Visibility Wind Speed Wind Dir Waves Ship Positions

Hondo

Owner: Kirby Inland Marine LP, Houston, TX. More information available from US FCC via Universal Licensing System and Coast Guard Vessel Documentation Center.

Last reported at 2018-Jan-20 23:05 UTC. Time now 2018-Jan-22 00:35 UTC.
Position N 31°58' W 091°11'.

Length 122 m; draft 2.8 m.

Type: . MMSI: 367728240.

Date/timePositionNaut miles runAvg speedWind from/ knotsBaromVisibWave heightAir tempDewpointWater temp
2018-Jan-20 23:05N 31°58' W 091°11'510.4
2018-Jan-20 22:34N 31°60' W 091°06'411.4
2018-Jan-20 22:16N 32°03' W 091°03'311.5
2018-Jan-20 22:00N 32°05' W 091°05'3 5.2
2018-Jan-20 21:31N 32°08' W 091°03'4 8.8
2018-Jan-20 21:00N 32°11' W 090°60'611.2
2018-Jan-20 20:31N 32°16' W 090°58'510.3
2018-Jan-20 20:00N 32°20' W 090°54'5 9.3
2018-Jan-20 19:30N 32°21' W 090°59'5 9.6
2018-Jan-20 19:01N 32°26' W 091°01'611.0
2018-Jan-20 18:31N 32°29' W 091°07'510.7
2018-Jan-20 18:01N 32°34' W 091°06'610.3
2018-Jan-20 17:28N 32°39' W 091°09'  
Track history (hours):
 
Tides and Currents Weather Stations Pressure Air Temp Water Temp Dewpoint Dewpoint Depression Visibility Wind Speed Wind Dir Waves Ship Positions

Hondo

Owner: Kirby Inland Marine LP, Houston, TX. More information available from US FCC via Universal Licensing System and Coast Guard Vessel Documentation Center.

Last reported at 2018-Jan-20 23:05 UTC. Time now 2018-Jan-22 00:35 UTC.
Position N 31°58' W 091°11'.

Length 122 m; draft 2.8 m.

Type: . MMSI: 367728240.

Date/timePositionNaut miles runAvg speedWind from/ knotsBaromVisibWave heightAir tempDewpointWater temp
2018-Jan-20 23:05N 31°58' W 091°11'510.4
2018-Jan-20 22:34N 31°60' W 091°06'411.4
2018-Jan-20 22:16N 32°03' W 091°03'311.5
2018-Jan-20 22:00N 32°05' W 091°05'3 5.2
2018-Jan-20 21:31N 32°08' W 091°03'4 8.8
2018-Jan-20 21:00N 32°11' W 090°60'611.2
2018-Jan-20 20:31N 32°16' W 090°58'510.3
2018-Jan-20 20:00N 32°20' W 090°54'5 9.3
2018-Jan-20 19:30N 32°21' W 090°59'5 9.6
2018-Jan-20 19:01N 32°26' W 091°01'611.0
2018-Jan-20 18:31N 32°29' W 091°07'510.7
2018-Jan-20 18:01N 32°34' W 091°06'610.3
2018-Jan-20 17:28N 32°39' W 091°09'  

Dump ship's entire track history